Airfield :
LOGIN :

Register | Disclaimer

   EN    FR    IT 

 










Legend :    VFR   Marginal VFR   IFR   Intensive IFR   Very Intensive IFR
Visi :
Ceiling :
>= 8 km
>= 3000ft
5 to 8 km
1000 to 3000 ft
1500m to 5 km
500 to 1000 ft
800 to 1500m
200 to 500 ft
< 800m
< 200 ft
Symbols :   Thunderstorms  Fog  Heavy snow  Heavy precipitations  Wind > 20 kt
SIGMETs :     Misc.  Thunderstorms  Icing  Turbulence  Mountain Waves  Volcanic Ashes







- Airport Elevation : 416 ft
- IATA code : OVD


LEAS - Asturias

CURRENT METAR :
  • 211530Z 32005KT 280V010 9999 -RA FEW046 BKN054 21/17 Q1004 NOSIG

EXPIRED METARs :
  • 211500Z 36003KT 330V060 9999 FEW046 SCT076 25/17 Q1004 NOSIG
  • 211430Z 04003KT 340V100 9999 FEW046 SCT078 26/19 Q1004 NOSIG
  • 211400Z 04002KT 9999 FEW046 SCT078 25/18 Q1004 NOSIG
  • 211330Z VRB02KT 9999 FEW046 SCT078 27/17 Q1004 NOSIG
  • 211300Z 29004KT 240V330 9999 FEW046 SCT072 26/17 Q1005 NOSIG

TAF TAF LEAS
Valid from the 21 at 15:00 until the 22 at 15:00 UTC


211400Z 2115/2215 VRB06KT 9999 FEW020 BKN035 TX26/2115Z TN13/2205Z
PROB40
TEMPO 2115/2118 4000 -RA SHRA SCT030TCU
BECMG 2117/2120 32010KT
TEMPO 2118/2122 3000 RA SHRA BKN020TCU
PROB40
TEMPO 2118/2122 29018G30KT 1500 RA BKN008
BECMG 2122/2124 23007KT
TEMPO 2210/2215 29010KT
PROB30
TEMPO 2213/2215 RA
No reported NOTAMs for that airfield.



MET'MAP, your aeronautical weather chart ! - Copyright ORBIFLY December 2007 - Disclaimer

ORBIFLY MET'MAP TEAM :

Programming & Development : Alexandra Zaïnal
Concept & Development : Baudouin d'Aumeries
Co-Development & Prog : Marc-Olivier Méhu
Technical & hardware support : Manuel Goepfert

Contact : metmap@orbifly.com




SOURCES & CREDITS :

   NOAA